createdAt,value
2023-03-05T00:01:36.152Z,99795.22
2023-03-05T00:03:41.546Z,99796.73
2023-03-05T00:05:47.627Z,99800.45
2023-03-05T00:07:55.835Z,99799.75
2023-03-05T00:10:01.018Z,99793.28
2023-03-05T00:12:06.449Z,99794.78
2023-03-05T00:14:11.636Z,99790.63
2023-03-05T00:16:17.410Z,99788.16
2023-03-05T00:18:23.192Z,99788.22
2023-03-05T00:20:28.828Z,99786.08
2023-03-05T00:22:34.166Z,99786.01
2023-03-05T00:24:39.287Z,99787.47
2023-03-05T00:26:44.883Z,99785
2023-03-05T00:28:50.019Z,99781.95
2023-03-05T00:30:56.414Z,99778.84
2023-03-05T00:33:01.873Z,99782.79
2023-03-05T00:35:07.284Z,99777.64
2023-03-05T00:37:15.620Z,99776.3
2023-03-05T00:39:20.819Z,99774.41
2023-03-05T00:41:26.141Z,99775.75
2023-03-05T00:43:32.281Z,99770.85
2023-03-05T00:45:37.499Z,99766.55
2023-03-05T00:47:42.889Z,99769.23
2023-03-05T00:49:48.195Z,99761.51
2023-03-05T00:51:53.462Z,99762.16
2023-03-05T00:53:58.552Z,99761.89
2023-03-05T00:56:04.212Z,99755.78
2023-03-05T00:58:09.683Z,99754.25
2023-03-05T01:00:15.068Z,99750.86
2023-03-05T01:02:20.747Z,99752.28
2023-03-05T01:04:26.518Z,99748.98
2023-03-05T01:06:32.129Z,99751.27
2023-03-05T01:08:37.338Z,99746.8
2023-03-05T01:10:43.064Z,99746.79
2023-03-05T01:12:48.498Z,99744.45
2023-03-05T01:14:53.773Z,99742.61
2023-03-05T01:16:59.098Z,99746.35
2023-03-05T01:19:04.278Z,99735.2
2023-03-05T01:21:09.750Z,99735.38
2023-03-05T01:23:15.419Z,99733.62
2023-03-05T01:25:21.019Z,99733.39
2023-03-05T01:27:26.987Z,99727.34
2023-03-05T01:29:32.618Z,99722.94
2023-03-05T01:31:38.283Z,99726.52
2023-03-05T01:33:43.667Z,99724.09
2023-03-05T01:35:49.441Z,99722.13
2023-03-05T01:37:54.921Z,99722.38
2023-03-05T01:40:00.165Z,99720.76
2023-03-05T01:42:05.794Z,99718.02
2023-03-05T01:44:11.232Z,99715.2
2023-03-05T01:46:16.885Z,99718.91
2023-03-05T01:48:22.766Z,99713.8
2023-03-05T01:50:28.071Z,99709.97
2023-03-05T01:52:33.776Z,99709.81
2023-03-05T01:54:40.170Z,99714.31
2023-03-05T01:56:45.614Z,99703.81
2023-03-05T01:58:51.456Z,99703.3
2023-03-05T02:00:56.805Z,99708.84
2023-03-05T02:03:02.223Z,99706.83
2023-03-05T02:05:07.979Z,99703.69
2023-03-05T02:07:13.403Z,99710.58
2023-03-05T02:09:18.782Z,99707.28
2023-03-05T02:11:23.859Z,99706.72
2023-03-05T02:13:29.162Z,99709.39
2023-03-05T02:15:34.333Z,99701.61
2023-03-05T02:17:39.637Z,99702.48
2023-03-05T02:19:44.713Z,99697.91
2023-03-05T02:21:50.250Z,99696.92
2023-03-05T02:23:55.500Z,99696.64
2023-03-05T02:26:00.971Z,99689.63
2023-03-05T02:28:06.517Z,99689.03
2023-03-05T02:30:11.718Z,99690.61
2023-03-05T02:32:17.219Z,99690.66
2023-03-05T02:34:22.855Z,99690.86
2023-03-05T02:36:28.368Z,99690.31
2023-03-05T02:38:33.881Z,99682.69
2023-03-05T02:40:39.002Z,99683.47
2023-03-05T02:42:44.020Z,99686.64
2023-03-05T02:44:49.317Z,99686.13
2023-03-05T02:46:54.611Z,99683.52
2023-03-05T02:49:01.074Z,99687.53
2023-03-05T02:51:06.536Z,99688.52
2023-03-05T02:53:11.648Z,99683.77
2023-03-05T02:55:16.987Z,99681.63
2023-03-05T02:57:22.365Z,99682.19
2023-03-05T02:59:27.664Z,99683.16
2023-03-05T03:01:33.686Z,99677.88
2023-03-05T03:03:39.488Z,99678.53
2023-03-05T03:05:44.707Z,99673.58
2023-03-05T03:07:50.041Z,99673.48
2023-03-05T03:09:58.933Z,99669.69
2023-03-05T03:12:04.111Z,99666.2
2023-03-05T03:14:09.226Z,99665.77
2023-03-05T03:16:14.490Z,99668.34
2023-03-05T03:18:20.030Z,99666.13
2023-03-05T03:20:25.543Z,99666.27
2023-03-05T03:22:30.701Z,99662.73
2023-03-05T03:24:36.584Z,99658.23
2023-03-05T03:26:41.845Z,99656.09
2023-03-05T03:28:47.370Z,99656.36
2023-03-05T03:30:52.545Z,99654.98
2023-03-05T03:32:57.965Z,99653.29
2023-03-05T03:35:03.113Z,99652.02
2023-03-05T03:37:08.419Z,99653.08
2023-03-05T03:39:13.640Z,99650.11
2023-03-05T03:41:19.071Z,99652.76
2023-03-05T03:43:24.189Z,99649.25
2023-03-05T03:45:29.642Z,99646.02
2023-03-05T03:47:34.722Z,99642.2
2023-03-05T03:49:40.051Z,99639.61
2023-03-05T03:51:45.213Z,99638.01
2023-03-05T03:53:50.692Z,99636.62
2023-03-05T03:55:55.807Z,99637.75
2023-03-05T03:58:01.086Z,99635.15
2023-03-05T04:00:06.888Z,99630.11
2023-03-05T04:02:12.200Z,99627.41
2023-03-05T04:04:17.629Z,99625.88
2023-03-05T04:06:23.040Z,99624.87
2023-03-05T04:08:28.226Z,99625.11
2023-03-05T04:10:34.036Z,99625.3
2023-03-05T04:12:39.385Z,99621.33
2023-03-05T04:14:44.417Z,99616.52
2023-03-05T04:16:49.587Z,99614.61
2023-03-05T04:18:54.936Z,99615.51
2023-03-05T04:21:01.443Z,99613.94
2023-03-05T04:23:06.675Z,99615.44
2023-03-05T04:25:12.219Z,99614.45
2023-03-05T04:27:17.754Z,99609.8
2023-03-05T04:29:22.911Z,99609.31
2023-03-05T04:31:28.281Z,99607.67
2023-03-05T04:33:33.866Z,99605.91
2023-03-05T04:35:39.402Z,99605.09
2023-03-05T04:37:45.099Z,99603.91
2023-03-05T04:39:50.424Z,99602.39
2023-03-05T04:41:55.871Z,99602
2023-03-05T04:44:01.250Z,99601.72
2023-03-05T04:46:06.388Z,99596.67
2023-03-05T04:48:11.992Z,99597.45
2023-03-05T04:50:17.355Z,99598.69
2023-03-05T04:52:22.693Z,99593.84
2023-03-05T04:54:28.356Z,99592.07
2023-03-05T04:56:34.009Z,99590.33
2023-03-05T04:58:39.229Z,99585
2023-03-05T05:00:44.535Z,99580.66
2023-03-05T05:02:50.979Z,99582.34
2023-03-05T05:04:56.687Z,99579.72
2023-03-05T05:07:02.111Z,99577.56
2023-03-05T05:09:07.594Z,99574.45
2023-03-05T05:11:12.787Z,99574.83
2023-03-05T05:13:18.327Z,99568.33
2023-03-05T05:15:23.545Z,99569.47
2023-03-05T05:17:28.802Z,99578.81
2023-03-05T05:19:34.055Z,99574.78
2023-03-05T05:21:39.987Z,99570.38
2023-03-05T05:23:45.227Z,99570.3
2023-03-05T05:25:50.545Z,99572.46
2023-03-05T05:27:59.202Z,99571.94
2023-03-05T05:30:04.830Z,99574.06
2023-03-05T05:32:10.273Z,99569.55
2023-03-05T05:34:15.934Z,99572.88
2023-03-05T05:36:21.502Z,99578.84
2023-03-05T05:38:27.244Z,99570.36
2023-03-05T05:40:32.621Z,99568.88
2023-03-05T05:42:37.979Z,99571.8
2023-03-05T05:44:43.130Z,99567.95
2023-03-05T05:46:48.958Z,99567.1
2023-03-05T05:48:54.272Z,99566
2023-03-05T05:50:59.549Z,99566.58
2023-03-05T05:53:04.891Z,99566.89
2023-03-05T05:55:10.705Z,99565.7
2023-03-05T05:57:16.171Z,99566.94
2023-03-05T05:59:21.542Z,99569.82
2023-03-05T06:01:26.746Z,99567.5
2023-03-05T06:03:32.063Z,99567
2023-03-05T06:05:37.405Z,99564.98
2023-03-05T06:07:42.815Z,99564.76
2023-03-05T06:09:48.032Z,99559.82
2023-03-05T06:11:53.369Z,99562.7
2023-03-05T06:13:58.633Z,99557.78
2023-03-05T06:16:04.282Z,99557.81
2023-03-05T06:18:09.941Z,99554.78
2023-03-05T06:20:15.424Z,99555.05
2023-03-05T06:22:20.867Z,99549.21
2023-03-05T06:24:26.224Z,99551.31
2023-03-05T06:26:31.567Z,99552.48
2023-03-05T06:28:36.859Z,99550.17
2023-03-05T06:30:42.167Z,99553.5
2023-03-05T06:32:47.502Z,99551.67
2023-03-05T06:34:52.844Z,99549.31
2023-03-05T06:36:58.355Z,99550.09
2023-03-05T06:39:04.849Z,99543.57
2023-03-05T06:41:10.621Z,99543.41
2023-03-05T06:43:15.808Z,99536.09
2023-03-05T06:45:21.306Z,99535.55
2023-03-05T06:47:26.914Z,99536.66
2023-03-05T06:49:32.104Z,99533.5
2023-03-05T06:51:37.278Z,99533.75
2023-03-05T06:53:42.725Z,99532.78
2023-03-05T06:55:49.607Z,99536.37
2023-03-05T06:57:55.041Z,99534.3
2023-03-05T07:00:00.504Z,99536.27
2023-03-05T07:02:06.212Z,99526.07
2023-03-05T07:04:11.868Z,99515.58
2023-03-05T07:06:17.400Z,99505.73
2023-03-05T07:08:22.995Z,99506.26
2023-03-05T07:10:28.509Z,99490.87
2023-03-05T07:12:34.600Z,99489.33
2023-03-05T07:14:42.862Z,99477.38
2023-03-05T07:16:48.396Z,99467.99
2023-03-05T07:18:53.642Z,99457.31
2023-03-05T07:20:59.124Z,99443.66
2023-03-05T07:23:04.682Z,99439.22
2023-03-05T07:25:09.806Z,99447.37
2023-03-05T07:27:15.278Z,99463.61
2023-03-05T07:29:20.435Z,99472.3
2023-03-05T07:31:26.179Z,99471.77
2023-03-05T07:33:32.100Z,99471.8
2023-03-05T07:35:38.474Z,99464.41
2023-03-05T07:37:45.473Z,99469.48
2023-03-05T07:39:51.589Z,99467.86
2023-03-05T07:41:58.920Z,99462.49
2023-03-05T07:44:05.350Z,99466.73
2023-03-05T07:46:11.772Z,99465.09
2023-03-05T07:48:18.594Z,99463.75
2023-03-05T07:50:25.052Z,99463.2
2023-03-05T07:52:32.576Z,99463.41
2023-03-05T07:54:38.702Z,99460.72
2023-03-05T07:56:45.124Z,99462.82
2023-03-05T07:58:51.654Z,99462.14
2023-03-05T08:00:58.328Z,99464.95
2023-03-05T08:03:04.730Z,99460.06
2023-03-05T08:05:12.412Z,99463.21
2023-03-05T08:07:18.944Z,99462.22
2023-03-05T08:09:25.549Z,99468.09
2023-03-05T08:11:32.535Z,99464.05
2023-03-05T08:13:38.851Z,99461.42
2023-03-05T08:15:45.404Z,99465.05
2023-03-05T08:17:51.699Z,99460.95
2023-03-05T08:19:57.768Z,99470.47
2023-03-05T08:22:04.598Z,99466.99
2023-03-05T08:24:11.124Z,99465.49
2023-03-05T08:26:16.985Z,99468.74
2023-03-05T08:28:23.115Z,99465.63
2023-03-05T08:30:29.102Z,99472.42
2023-03-05T08:32:34.297Z,99465.16
2023-03-05T08:34:40.057Z,99464.92
2023-03-05T08:36:47.409Z,99462.64
2023-03-05T08:38:53.707Z,99463.86
2023-03-05T08:41:00.220Z,99456.33
2023-03-05T08:43:07.194Z,99453.39
2023-03-05T08:45:13.500Z,99454.98
2023-03-05T08:47:19.828Z,99455.66
2023-03-05T08:49:25.779Z,99455.97
2023-03-05T08:51:32.738Z,99457.66
2023-03-05T08:53:39.461Z,99456.28
2023-03-05T08:55:45.957Z,99456.09
2023-03-05T08:57:52.364Z,99458.77
2023-03-05T08:59:58.572Z,99458.43
2023-03-05T09:02:05.049Z,99455.94
2023-03-05T09:04:11.860Z,99453.88
2023-03-05T09:06:19.649Z,99454.25
2023-03-05T09:08:26.470Z,99453.8
2023-03-05T09:10:33.228Z,99449.8
2023-03-05T09:12:40.287Z,99449.44
2023-03-05T09:14:46.871Z,99448.38
2023-03-05T09:16:53.429Z,99447.06
2023-03-05T09:18:59.047Z,99445.33
2023-03-05T09:21:04.793Z,99439.16
2023-03-05T09:23:11.258Z,99441.77
2023-03-05T09:25:18.505Z,99441.44
2023-03-05T09:27:24.978Z,99441.69
2023-03-05T09:29:31.784Z,99439.1
2023-03-05T09:31:38.253Z,99439.97
2023-03-05T09:33:44.786Z,99438.98
2023-03-05T09:35:51.229Z,99432.11
2023-03-05T09:37:58.223Z,99441.89
2023-03-05T09:40:04.734Z,99436.58
2023-03-05T09:42:12.413Z,99436.19
2023-03-05T09:44:19.641Z,99433.48
2023-03-05T09:46:26.549Z,99438.66
2023-03-05T09:48:33.382Z,99435.47
2023-03-05T09:50:40.214Z,99436.61
2023-03-05T09:52:47.061Z,99432.4
2023-03-05T09:54:53.717Z,99430.21
2023-03-05T09:57:01.502Z,99430.97
2023-03-05T09:59:08.165Z,99422.34
2023-03-05T10:01:16.613Z,99429.77
2023-03-05T10:03:23.852Z,99425.3
2023-03-05T10:05:31.825Z,99422.15
2023-03-05T10:07:38.273Z,99425.94
2023-03-05T10:09:44.589Z,99427.56
2023-03-05T10:11:50.812Z,99428.33
2023-03-05T10:13:57.040Z,99426.2
2023-03-05T10:16:04.425Z,99423.73
2023-03-05T10:18:11.783Z,99422.05
2023-03-05T10:20:18.382Z,99420.94
2023-03-05T10:22:26.182Z,99417.89
2023-03-05T10:24:33.191Z,99414.08
2023-03-05T10:26:41.015Z,99414.56
2023-03-05T10:28:48.540Z,99407.9
2023-03-05T10:30:55.406Z,99412.75
2023-03-05T10:33:02.062Z,99408.66
2023-03-05T10:35:08.901Z,99406.92
2023-03-05T10:37:15.771Z,99405.42
2023-03-05T10:39:23.335Z,99400.56
2023-03-05T10:41:29.692Z,99393.91
2023-03-05T10:43:37.367Z,99397.69
2023-03-05T10:45:45.688Z,99395.91
2023-03-05T10:47:53.476Z,99392.37
2023-03-05T10:50:01.468Z,99396.97
2023-03-05T10:52:09.161Z,99395.49
2023-03-05T10:54:15.964Z,99390.75
2023-03-05T10:56:23.172Z,99390.59
2023-03-05T10:58:29.480Z,99388.74
2023-03-05T11:00:36.398Z,99388.09
2023-03-05T11:02:42.729Z,99384.09
2023-03-05T11:04:51.544Z,99382.35
2023-03-05T11:06:58.399Z,99381.27
2023-03-05T11:09:05.805Z,99374.06
2023-03-05T11:11:12.514Z,99376.91
2023-03-05T11:13:20.421Z,99372.16
2023-03-05T11:15:29.133Z,99371.13
2023-03-05T11:17:37.203Z,99371.89
2023-03-05T11:19:46.294Z,99366.22
2023-03-05T11:21:53.126Z,99365.16
2023-03-05T11:24:03.510Z,99361.45
2023-03-05T11:26:13.036Z,99363.55
2023-03-05T11:28:34.206Z,99361.23
2023-03-05T11:30:41.243Z,99360.25
2023-03-05T11:32:49.622Z,99357.92
2023-03-05T11:34:58.953Z,99356.34
2023-03-05T11:37:07.954Z,99351.8
2023-03-05T11:39:14.902Z,99352.75
2023-03-05T11:41:23.334Z,99351.91
2023-03-05T11:43:30.363Z,99354.28
2023-03-05T11:45:38.112Z,99351.91
2023-03-05T11:47:44.481Z,99351.47
2023-03-05T11:49:51.760Z,99344.7
2023-03-05T11:52:00.887Z,99342.3
2023-03-05T11:54:07.457Z,99341.75
2023-03-05T11:56:14.045Z,99339.02
2023-03-05T11:58:22.746Z,99335.09
2023-03-05T12:00:30.170Z,99332.73
2023-03-05T12:02:36.858Z,99329.19
2023-03-05T12:04:44.337Z,99330.38
2023-03-05T12:06:51.329Z,99328.7
2023-03-05T12:08:57.705Z,99331.38
2023-03-05T12:11:06.511Z,99324.89
2023-03-05T12:13:13.669Z,99323.58
2023-03-05T12:15:23.769Z,99323.27
2023-03-05T12:17:31.768Z,99319.27
2023-03-05T12:19:40.431Z,99322.2
2023-03-05T12:21:48.433Z,99319.33
2023-03-05T12:23:56.400Z,99317.56
2023-03-05T12:26:04.520Z,99318.3
2023-03-05T12:28:12.418Z,99310.77
2023-03-05T12:30:18.692Z,99311.75
2023-03-05T12:32:31.514Z,99311
2023-03-05T12:34:40.475Z,99308.8
2023-03-05T12:36:48.288Z,99310.32
2023-03-05T12:38:57.601Z,99306.63
2023-03-05T12:41:04.508Z,99307.92
2023-03-05T12:43:12.453Z,99303.78
2023-03-05T12:45:19.899Z,99301.28
2023-03-05T12:47:26.695Z,99302.77
2023-03-05T12:49:36.872Z,99299.48
2023-03-05T12:51:45.411Z,99302.48
2023-03-05T12:53:52.872Z,99299
2023-03-05T12:56:01.111Z,99298.14
2023-03-05T12:58:10.130Z,99296.38
2023-03-05T13:00:19.337Z,99299.43
2023-03-05T13:02:28.011Z,99296.98
2023-03-05T13:04:34.656Z,99297.11
2023-03-05T13:06:49.348Z,99298.85
2023-03-05T13:08:56.278Z,99290.33
2023-03-05T13:11:03.276Z,99292.99
2023-03-05T13:13:10.939Z,99291.16
2023-03-05T13:15:20.536Z,99296.02
2023-03-05T13:17:28.280Z,99293.39
2023-03-05T13:19:37.037Z,99291.42
2023-03-05T13:21:47.372Z,99292.05
2023-03-05T13:23:57.584Z,99290.38
2023-03-05T13:26:05.278Z,99292.39
2023-03-05T13:28:13.470Z,99289.44
2023-03-05T13:30:22.100Z,99290.2
2023-03-05T13:32:30.167Z,99287.36
2023-03-05T13:34:49.816Z,99289.86
2023-03-05T13:36:58.223Z,99286.45
2023-03-05T13:39:10.778Z,99280.79
2023-03-05T13:41:20.185Z,99281.39
2023-03-05T13:43:30.305Z,99279.88
2023-03-05T13:45:38.317Z,99275.41
2023-03-05T13:47:46.393Z,99274.92
2023-03-05T13:49:55.395Z,99272.58
2023-03-05T13:52:04.573Z,99274.7
2023-03-05T13:54:13.376Z,99270.02
2023-03-05T13:56:22.437Z,99273.61
2023-03-05T13:58:31.564Z,99269.77
2023-03-05T14:00:41.102Z,99274.69
2023-03-05T14:02:48.737Z,99272.98
2023-03-05T14:04:57.864Z,99269.13
2023-03-05T14:07:05.693Z,99268.78
2023-03-05T14:09:15.313Z,99266.2
2023-03-05T14:11:24.564Z,99264.58
2023-03-05T14:13:34.431Z,99263.63
2023-03-05T14:15:42.155Z,99259.63
2023-03-05T14:17:51.163Z,99258.56
2023-03-05T14:19:59.016Z,99257.08
2023-03-05T14:22:07.785Z,99255.73
2023-03-05T14:24:17.731Z,99252.31
2023-03-05T14:26:28.708Z,99250.19
2023-03-05T14:28:39.018Z,99249.13
2023-03-05T14:30:47.864Z,99247.34
2023-03-05T14:32:58.904Z,99245.78
2023-03-05T14:35:11.020Z,99245.55
2023-03-05T14:37:21.240Z,99244.3
2023-03-05T14:39:32.151Z,99240.27
2023-03-05T14:41:42.269Z,99244.94
2023-03-05T14:43:50.790Z,99243.53
2023-03-05T14:46:00.573Z,99243.88
2023-03-05T14:48:11.567Z,99242.48
2023-03-05T14:50:25.260Z,99243.3
2023-03-05T14:52:33.270Z,99237
2023-03-05T14:54:43.209Z,99235.88
2023-03-05T14:56:52.067Z,99235.41
2023-03-05T14:59:18.020Z,99237.27
2023-03-05T15:01:28.191Z,99235.11
2023-03-05T15:03:42.796Z,99232.62
2023-03-05T15:05:54.652Z,99230.3
2023-03-05T15:08:05.270Z,99225.25
2023-03-05T15:10:15.519Z,99228.41
2023-03-05T15:12:26.704Z,99226.47
2023-03-05T15:14:37.697Z,99224.63
2023-03-05T15:16:48.388Z,99226.83
2023-03-05T15:18:59.666Z,99226.22
2023-03-05T15:21:08.630Z,99223.64
2023-03-05T15:23:19.611Z,99225.13
2023-03-05T15:25:36.850Z,99225.61
2023-03-05T15:27:45.613Z,99223
2023-03-05T15:29:57.134Z,99223.13
2023-03-05T15:32:09.685Z,99229.45
2023-03-05T15:34:20.833Z,99224.17
2023-03-05T15:36:33.283Z,99222.25
2023-03-05T15:38:42.834Z,99218.11
2023-03-05T15:40:51.231Z,99220.27
2023-03-05T15:43:01.453Z,99222.16
2023-03-05T15:45:11.687Z,99222.98
2023-03-05T15:47:21.959Z,99226.83
2023-03-05T15:49:32.949Z,99232.36
2023-03-05T15:51:45.236Z,99225.63
2023-03-05T15:53:57.860Z,99221.88
2023-03-05T15:56:07.220Z,99219.27
2023-03-05T15:58:15.718Z,99221.16
2023-03-05T16:00:28.122Z,99222.97
2023-03-05T16:02:37.314Z,99225.57
2023-03-05T16:04:47.563Z,99224.07
2023-03-05T16:06:57.652Z,99227.98
2023-03-05T16:09:06.234Z,99227.05
2023-03-05T16:11:14.392Z,99229.25
2023-03-05T16:13:28.475Z,99231.97
2023-03-05T16:15:48.120Z,99237.2
2023-03-05T16:17:59.394Z,99236.03
2023-03-05T16:20:08.764Z,99238.38
2023-03-05T16:22:18.382Z,99242.14
2023-03-05T16:24:27.228Z,99245.8
2023-03-05T16:26:38.066Z,99252.44
2023-03-05T16:28:47.716Z,99254.09
2023-03-05T16:30:56.955Z,99253.3
2023-03-05T16:33:07.395Z,99253.08
2023-03-05T16:35:16.105Z,99252.3
2023-03-05T16:37:25.587Z,99258.06
2023-03-05T16:39:37.402Z,99259.85
2023-03-05T16:41:50.065Z,99260.77
2023-03-05T16:44:00.229Z,99265.48
2023-03-05T16:46:10.272Z,99270.47
2023-03-05T16:48:24.593Z,99270.74
2023-03-05T16:50:33.888Z,99271.48
2023-03-05T16:52:43.325Z,99278.66
2023-03-05T16:54:59.778Z,99280.28
2023-03-05T16:57:09.505Z,99285.89
2023-03-05T16:59:18.373Z,99289.53
2023-03-05T17:01:30.268Z,99294.94
2023-03-05T17:03:39.762Z,99297.95
2023-03-05T17:05:52.967Z,99296.43
2023-03-05T17:08:02.099Z,99298.68
2023-03-05T17:10:18.719Z,99296.5
2023-03-05T17:12:32.904Z,99295.8
2023-03-05T17:14:44.174Z,99296.22
2023-03-05T17:17:07.014Z,99293.67
2023-03-05T17:19:16.949Z,99298.03
2023-03-05T17:21:30.509Z,99297.88
2023-03-05T17:23:41.072Z,99296.36
2023-03-05T17:25:49.873Z,99298.71
2023-03-05T17:27:59.606Z,99302.5
2023-03-05T17:30:08.096Z,99301.5
2023-03-05T17:32:15.169Z,99298.66
2023-03-05T17:34:36.561Z,99297.39
2023-03-05T17:36:46.886Z,99294.8
2023-03-05T17:38:57.691Z,99304.67
2023-03-05T17:41:05.730Z,99299.75
2023-03-05T17:43:15.039Z,99297.22
2023-03-05T17:45:25.493Z,99298.27
2023-03-05T17:47:37.385Z,99296.1
2023-03-05T17:49:49.873Z,99300.56
2023-03-05T17:51:59.563Z,99299.28
2023-03-05T17:54:09.295Z,99302.02
2023-03-05T17:56:21.974Z,99291.77
2023-03-05T17:58:35.615Z,99296.53
2023-03-05T18:00:48.489Z,99295.61
2023-03-05T18:02:58.246Z,99291.86
2023-03-05T18:05:07.535Z,99300.3
2023-03-05T18:07:19.381Z,99299.42
2023-03-05T18:09:51.483Z,99302.1
2023-03-05T18:11:59.603Z,99300.06
2023-03-05T18:14:10.299Z,99298.77
2023-03-05T18:16:33.369Z,99295.61
2023-03-05T18:18:44.680Z,99297.41
2023-03-05T18:20:57.975Z,99301.45
2023-03-05T18:23:10.408Z,99297.22
2023-03-05T18:25:21.358Z,99297.43
2023-03-05T18:27:32.920Z,99298.41
2023-03-05T18:29:42.360Z,99299.92
2023-03-05T18:31:51.400Z,99295.91
2023-03-05T18:34:02.774Z,99299.67
2023-03-05T18:36:15.001Z,99296.59
2023-03-05T18:38:26.178Z,99299.94
2023-03-05T18:40:34.900Z,99295.3
2023-03-05T18:42:44.556Z,99294.95
2023-03-05T18:44:51.210Z,99293.52
2023-03-05T18:46:58.651Z,99293.16
2023-03-05T18:49:07.891Z,99295.11
2023-03-05T18:51:17.180Z,99295.19
2023-03-05T18:53:29.965Z,99295.47
2023-03-05T18:55:41.301Z,99293.03
2023-03-05T18:57:52.864Z,99297.91
2023-03-05T19:00:04.474Z,99302.66
2023-03-05T19:02:14.457Z,99304.45
2023-03-05T19:04:27.961Z,99300.39
2023-03-05T19:06:38.638Z,99300.28
2023-03-05T19:08:50.301Z,99305.85
2023-03-05T19:11:15.069Z,99303.23
2023-03-05T19:13:25.216Z,99303.36
2023-03-05T19:15:34.193Z,99302.7
2023-03-05T19:17:47.164Z,99296.77
2023-03-05T19:19:58.329Z,99298.11
2023-03-05T19:22:10.646Z,99298.92
2023-03-05T19:24:21.758Z,99296.72
2023-03-05T19:26:32.221Z,99298.56
2023-03-05T19:28:41.966Z,99298.63
2023-03-05T19:30:53.423Z,99298.33
2023-03-05T19:33:03.878Z,99301.95
2023-03-05T19:35:17.121Z,99302.8
2023-03-05T19:37:40.495Z,99303.34
2023-03-05T19:39:54.016Z,99307.44
2023-03-05T19:42:03.657Z,99306.45
2023-03-05T19:44:12.910Z,99300.7
2023-03-05T19:46:33.717Z,99304.23
2023-03-05T19:48:52.683Z,99306
2023-03-05T19:51:05.113Z,99308.48
2023-03-05T19:53:13.217Z,99307.58
2023-03-05T19:55:23.896Z,99309.46
2023-03-05T19:57:35.636Z,99303.34
2023-03-05T19:59:51.782Z,99307.57
2023-03-05T20:02:16.539Z,99304.34
2023-03-05T20:04:30.449Z,99305.91
2023-03-05T20:06:40.711Z,99303.59
2023-03-05T20:08:48.750Z,99305.87
2023-03-05T20:11:02.726Z,99306.48
2023-03-05T20:13:13.176Z,99305.14
2023-03-05T20:15:25.970Z,99305.53
2023-03-05T20:17:34.364Z,99305.31
2023-03-05T20:19:50.390Z,99305.34
2023-03-05T20:22:00.703Z,99298.23
2023-03-05T20:24:11.968Z,99301.12
2023-03-05T20:26:23.162Z,99301.11
2023-03-05T20:28:33.729Z,99300.64
2023-03-05T20:30:41.939Z,99301.69
2023-03-05T20:32:51.846Z,99301.94
2023-03-05T20:35:01.416Z,99301.56
2023-03-05T20:37:08.013Z,99301.84
2023-03-05T20:39:15.343Z,99303.78
2023-03-05T20:41:24.641Z,99305.45
2023-03-05T20:43:34.329Z,99305.86
2023-03-05T20:45:48.130Z,99305.07
2023-03-05T20:47:57.947Z,99305.08
2023-03-05T20:50:06.529Z,99303.98
2023-03-05T20:52:15.802Z,99301.17
2023-03-05T20:54:24.264Z,99303.39
2023-03-05T20:56:34.974Z,99302.16
2023-03-05T20:58:48.090Z,99304.61
2023-03-05T21:01:02.260Z,99295.38
2023-03-05T21:03:15.717Z,99299.76
2023-03-05T21:05:25.156Z,99296.52
2023-03-05T21:07:32.880Z,99299.82
2023-03-05T21:09:47.325Z,99300.21
2023-03-05T21:11:58.259Z,99298.66
2023-03-05T21:14:07.131Z,99296.81
2023-03-05T21:16:15.170Z,99292.59
2023-03-05T21:18:23.833Z,99295.62
2023-03-05T21:20:30.539Z,99291.53
2023-03-05T21:22:38.250Z,99292.38
2023-03-05T21:24:45.912Z,99292
2023-03-05T21:26:53.749Z,99287.3
2023-03-05T21:29:01.411Z,99287.77
2023-03-05T21:31:10.355Z,99286.18
2023-03-05T21:33:20.269Z,99282.94
2023-03-05T21:35:27.917Z,99282.97
2023-03-05T21:37:39.303Z,99279.69
2023-03-05T21:39:50.010Z,99278.81
2023-03-05T21:41:55.785Z,99277.97
2023-03-05T21:44:06.187Z,99276.24
2023-03-05T21:46:15.507Z,99273.77
2023-03-05T21:48:21.392Z,99267.66
2023-03-05T21:50:27.830Z,99269.93
2023-03-05T21:52:33.984Z,99266.98
2023-03-05T21:54:41.272Z,99272.13
2023-03-05T21:56:47.278Z,99270.25
2023-03-05T21:58:53.271Z,99272.2
2023-03-05T22:00:59.698Z,99272.95
2023-03-05T22:03:05.240Z,99270.44
2023-03-05T22:05:11.003Z,99268.64
2023-03-05T22:07:16.668Z,99272.83
2023-03-05T22:09:22.319Z,99270.48
2023-03-05T22:11:28.296Z,99272.54
2023-03-05T22:13:33.646Z,99273.75
2023-03-05T22:15:39.391Z,99270.13
2023-03-05T22:17:44.885Z,99277.19
2023-03-05T22:19:50.415Z,99272.8
2023-03-05T22:21:55.626Z,99272.58
2023-03-05T22:24:01.544Z,99273.47
2023-03-05T22:26:07.167Z,99270.55
2023-03-05T22:28:12.636Z,99275.51
2023-03-05T22:30:18.322Z,99270.44
2023-03-05T22:32:23.822Z,99275.05
2023-03-05T22:34:29.667Z,99277.23
2023-03-05T22:36:35.070Z,99274.51
2023-03-05T22:38:40.918Z,99274.99
2023-03-05T22:40:46.502Z,99273.5
2023-03-05T22:42:51.809Z,99277.21
2023-03-05T22:44:56.903Z,99282.3
2023-03-05T22:47:02.083Z,99285.77
2023-03-05T22:49:07.497Z,99281.5
2023-03-05T22:51:13.172Z,99281.98
2023-03-05T22:53:18.748Z,99278.05
2023-03-05T22:55:23.893Z,99277.05
2023-03-05T22:57:29.297Z,99281.16
2023-03-05T22:59:34.761Z,99279.34
2023-03-05T23:01:40.137Z,99278.77
2023-03-05T23:03:48.938Z,99279.43
2023-03-05T23:05:54.316Z,99279.34
2023-03-05T23:07:59.794Z,99280.23
2023-03-05T23:10:05.099Z,99276.86
2023-03-05T23:12:10.463Z,99265.55
2023-03-05T23:14:16.075Z,99264.22
2023-03-05T23:16:21.553Z,99265.5
2023-03-05T23:18:26.743Z,99268.21
2023-03-05T23:20:32.033Z,99264.49
2023-03-05T23:22:37.079Z,99262.49
2023-03-05T23:24:42.993Z,99261.59
2023-03-05T23:26:48.733Z,99264.7
2023-03-05T23:28:54.076Z,99257.95
2023-03-05T23:30:59.919Z,99259.37
2023-03-05T23:33:07.518Z,99257.15
2023-03-05T23:35:13.786Z,99263.53
2023-03-05T23:37:19.391Z,99256.41
2023-03-05T23:39:24.684Z,99266.28
2023-03-05T23:41:31.157Z,99262.94
2023-03-05T23:43:36.374Z,99265.1
2023-03-05T23:45:41.794Z,99261.31
2023-03-05T23:47:47.330Z,99262.98
2023-03-05T23:49:52.569Z,99260.38
2023-03-05T23:51:57.686Z,99262.58
2023-03-05T23:54:03.040Z,99260.66
2023-03-05T23:56:08.266Z,99262.45
2023-03-05T23:58:13.596Z,99261.48
